Time;durP1;ratioP1;P1;durP2;ratioP2;P2;SDS_P1;SDS_P2;PMS_P1;PMS_P2;Temp;Humidity;BMP_temperature;BMP_pressure;BME280_temperature;BME280_humidity;BME280_pressure;Samples;Min_cycle;Max_cycle;Signal;HPM_P1;HPM_P2
2021/03/15 00:02:22;;;;;;;;;;;11.90;99.90;;;11.41;96.02;101444.19;5072532;28;19963;-63
2021/03/15 00:04:49;;;;;;;;;;;11.90;99.90;;;11.41;96.38;101430.66;5072423;28;19989;-63
2021/03/15 00:07:16;;;;;;;;;;;11.90;99.90;;;11.45;96.34;101432.53;5072444;28;19928;-63
2021/03/15 00:09:45;;;;;;;;;;;11.90;99.90;;;11.50;96.12;101427.06;5072497;28;20392;-63
2021/03/15 00:12:13;;;;;;;;;;;12.00;99.90;;;11.53;95.74;101428.41;5071823;28;19936;-63
2021/03/15 00:14:40;;;;;;;;;;;12.00;99.90;;;11.56;95.36;101427.84;5072646;28;19929;-63
2021/03/15 00:17:08;;;;;;;;;;;12.00;99.90;;;11.55;95.99;101426.22;5072461;28;19932;-63
2021/03/15 00:19:35;;;;;;;;;;;12.00;99.90;;;11.52;95.46;101422.16;5072737;28;19925;-63
2021/03/15 00:22:03;;;;;;;;;;;12.00;99.90;;;11.52;95.39;101422.16;5072152;28;19933;-63
2021/03/15 00:24:30;;;;;;;;;;;12.00;99.90;;;11.41;95.36;101415.22;5072703;28;19947;-63
2021/03/15 00:26:58;;;;;;;;;;;11.90;99.90;;;11.39;96.04;101417.41;5072143;28;19925;-63
2021/03/15 00:29:25;;;;;;;;;;;;;;;11.37;96.19;101416.03;5072314;28;19928;-63
2021/03/15 00:31:53;;;;;;;;;;;11.90;99.90;;;11.33;96.42;101409.59;5071594;28;19924;-63
2021/03/15 00:34:20;;;;;;;;;;;11.80;99.90;;;11.34;96.54;101406.59;5072373;28;19925;-63
2021/03/15 00:36:47;;;;;;;;;;;11.80;99.90;;;11.19;96.23;101405.84;5072131;28;20378;-63
2021/03/15 00:39:15;;;;;;;;;;;;;;;11.07;95.67;101408.09;5072153;28;19925;-63
2021/03/15 00:41:43;;;;;;;;;;;11.60;99.90;;;10.94;95.22;101410.31;5071612;28;19924;-63
2021/03/15 00:44:11;;;;;;;;;;;11.50;99.90;;;10.83;95.74;101405.22;5072347;28;19924;-63
2021/03/15 00:46:38;;;;;;;;;;;11.40;99.90;;;10.79;96.41;101402.25;5072209;28;19924;-63
2021/03/15 00:49:06;;;;;;;;;;;11.30;99.90;;;10.80;97.31;101403.91;5072085;28;19978;-63
2021/03/15 00:51:33;;;;;;;;;;;11.30;99.90;;;11.02;98.10;101405.41;5071352;28;19925;-63
2021/03/15 00:54:00;;;;;;;;;;;11.40;99.90;;;11.15;97.68;101399.41;5072337;28;20137;-63
2021/03/15 00:56:27;;;;;;;;;;;11.60;99.90;;;11.22;97.03;101389.88;5072234;28;19978;-63
2021/03/15 00:58:55;;;;;;;;;;;11.70;99.90;;;11.28;96.73;101396.06;5071539;28;19936;-63
2021/03/15 01:01:24;;;;;;;;;;;11.70;99.90;;;11.21;96.16;101390.16;5071252;28;19928;-63
2021/03/15 01:03:51;;;;;;;;;;;11.70;99.90;;;11.17;96.46;101394.50;5072101;28;19936;-63
2021/03/15 01:06:18;;;;;;;;;;;11.70;99.90;;;11.06;96.14;101392.97;5072238;28;19924;-63
2021/03/15 01:08:45;;;;;;;;;;;11.60;99.90;;;11.09;97.29;101385.09;5071771;28;19935;-63
2021/03/15 01:11:13;;;;;;;;;;;11.60;99.90;;;11.12;97.29;101383.72;5071962;28;19928;-63
2021/03/15 01:13:40;;;;;;;;;;;11.60;99.90;;;11.10;97.29;101381.28;5072013;28;19925;-63
2021/03/15 01:16:07;;;;;;;;;;;11.60;99.90;;;11.09;97.73;101379.69;5073745;28;19925;-63
2021/03/15 01:18:36;;;;;;;;;;;11.60;99.90;;;11.09;97.40;101378.88;5075690;28;19933;-63
2021/03/15 01:21:04;;;;;;;;;;;11.60;99.90;;;11.08;97.58;101374.53;5075091;28;20018;-63
2021/03/15 01:23:31;;;;;;;;;;;11.60;99.90;;;10.87;95.55;101368.44;5075885;28;20443;-63
2021/03/15 01:25:59;;;;;;;;;;;11.40;99.90;;;10.73;95.96;101376.31;5075861;28;19928;-63
2021/03/15 01:28:26;;;;;;;;;;;11.30;99.90;;;10.64;97.22;101372.56;5075671;28;19924;-63
2021/03/15 01:30:53;;;;;;;;;;;11.20;99.90;;;10.62;98.36;101368.53;5075325;28;19925;-63
2021/03/15 01:33:20;;;;;;;;;;;11.10;99.90;;;10.58;97.97;101365.56;5075604;28;19932;-63
2021/03/15 01:35:49;;;;;;;;;;;11.10;99.90;;;10.50;98.03;101358.03;5075634;28;19932;-63
2021/03/15 01:38:16;;;;;;;;;;;11.00;99.90;;;10.35;98.28;101358.09;5075765;28;19925;-63
2021/03/15 01:40:43;;;;;;;;;;;10.90;99.90;;;10.29;99.34;101354.59;5075247;28;19932;-63
2021/03/15 01:43:11;;;;;;;;;;;10.80;99.90;;;10.37;100.00;101353.19;5075350;28;19947;-63
2021/03/15 01:45:38;;;;;;;;;;;10.90;99.90;;;10.33;100.00;101344.03;5075465;28;20005;-63
2021/03/15 01:48:11;;;;;;;;;;;10.80;99.90;;;10.29;99.99;101346.47;5074910;28;19928;-63
2021/03/15 01:50:39;;;;;;;;;;;10.80;99.90;;;10.35;99.91;101348.09;5074826;28;19928;-62
2021/03/15 01:53:07;;;;;;;;;;;10.90;99.90;;;10.49;100.00;101340.19;5074889;28;19928;-63
2021/03/15 01:55:36;;;;;;;;;;;11.00;99.90;;;10.42;99.13;101342.38;5075306;28;19925;-63
2021/03/15 01:58:03;;;;;;;;;;;10.90;99.90;;;10.45;99.71;101344.53;5074715;28;19928;-64
2021/03/15 02:00:30;;;;;;;;;;;11.00;99.90;;;10.49;99.43;101340.19;5074343;28;19935;-62
2021/03/15 02:02:59;;;;;;;;;;;11.00;99.90;;;10.46;97.93;101338.03;5074265;28;19928;-63
2021/03/15 02:05:27;;;;;;;;;;;11.00;99.90;;;10.39;98.19;101332.94;5075305;28;19947;-63
2021/03/15 02:07:55;;;;;;;;;;;10.90;99.90;;;10.37;97.48;101331.56;5074696;28;19924;-63
2021/03/15 02:10:23;;;;;;;;;;;10.90;99.90;;;10.30;97.14;101339.97;5074481;28;19924;-63
2021/03/15 02:13:16;;;;;;;;;;;10.80;99.90;;;10.27;97.26;101335.13;5074409;28;19935;-63
2021/03/15 02:15:53;;;;;;;;;;;10.80;99.90;;;10.30;98.32;101334.56;5061969;28;19924;-63
2021/03/15 02:18:26;;;;;;;;;;;10.80;99.90;;;10.25;97.10;101331.06;5074966;28;19989;-63
2021/03/15 02:21:41;;;;;;;;;;;10.70;99.90;;;10.23;97.56;101322.44;5074166;28;20290;-63
2021/03/15 02:24:15;;;;;;;;;;;10.70;99.90;;;10.25;98.40;101331.88;5061664;28;19925;-63
2021/03/15 02:27:13;;;;;;;;;;;10.70;99.90;;;10.25;98.60;101331.88;5074238;28;19924;-63
2021/03/15 02:30:11;;;;;;;;;;;10.70;99.90;;;10.39;100.00;101327.53;5074631;28;19967;-63
2021/03/15 02:33:32;;;;;;;;;;;10.80;99.90;;;10.48;99.75;101316.13;5074149;28;19924;-63
2021/03/15 02:36:01;;;;;;;;;;;10.90;99.90;;;10.51;99.34;101316.41;5012842;28;19926;-63
2021/03/15 02:38:33;;;;;;;;;;;11.00;99.90;;;10.48;98.56;101314.25;5012335;28;19925;-63
2021/03/15 02:41:02;;;;;;;;;;;11.00;99.90;;;10.45;98.63;101311.28;5042664;28;20015;-63
2021/03/15 02:43:32;;;;;;;;;;;10.90;99.90;;;10.33;97.18;101306.19;5074423;28;19928;-65
2021/03/15 02:46:03;;;;;;;;;;;10.80;99.90;;;10.14;97.36;101307.88;5074158;28;19970;-65
2021/03/15 02:48:32;;;;;;;;;;;10.70;99.90;;;10.00;98.87;101304.88;5074416;28;20397;-63
2021/03/15 02:51:01;;;;;;;;;;;10.50;99.90;;;10.02;100.00;101305.44;5073734;28;19986;-63
2021/03/15 02:53:30;;;;;;;;;;;10.50;99.90;;;10.06;100.00;101295.69;5074366;28;19932;-63
2021/03/15 02:56:03;;;;;;;;;;;10.50;99.90;;;10.09;100.00;101292.44;5074276;28;20015;-63
2021/03/15 02:58:30;;;;;;;;;;;10.60;99.90;;;10.13;100.00;101298.09;5073798;28;19935;-63
2021/03/15 03:00:58;;;;;;;;;;;10.60;99.90;;;10.13;100.00;101298.09;5073461;28;19929;-64
2021/03/15 03:03:26;;;;;;;;;;;10.60;99.90;;;10.25;100.00;101290.53;5073988;28;19924;-63
2021/03/15 03:05:55;;;;;;;;;;;10.70;99.90;;;10.30;100.00;101287.81;5074116;28;19928;-63
2021/03/15 03:08:24;;;;;;;;;;;10.70;99.90;;;10.23;100.00;101290.81;5074093;28;19928;-63
2021/03/15 03:10:52;;;;;;;;;;;10.70;99.90;;;10.06;100.00;101290.28;5073445;28;20394;-63
2021/03/15 03:13:20;;;;;;;;;;;10.60;99.90;;;9.93;100.00;101284.66;5073885;28;19931;-64
2021/03/15 03:15:47;;;;;;;;;;;10.50;99.90;;;9.88;100.00;101280.06;5073969;28;19924;-63
2021/03/15 03:18:16;;;;;;;;;;;10.40;99.90;;;9.93;100.00;101280.06;5073851;28;19924;-63
2021/03/15 03:20:44;;;;;;;;;;;10.40;99.90;;;9.95;100.00;101277.91;5073266;28;20316;-63
2021/03/15 03:23:12;;;;;;;;;;;10.50;99.90;;;9.98;100.00;101276.53;5073831;28;19924;-63
2021/03/15 03:25:40;;;;;;;;;;;10.50;99.90;;;9.95;100.00;101267.09;5073864;28;20019;-63
2021/03/15 03:28:10;;;;;;;;;;;10.40;99.90;;;9.85;100.00;101264.41;5073217;28;19928;-63
2021/03/15 03:30:40;;;;;;;;;;;10.40;99.90;;;9.76;100.00;101261.47;5073216;28;19982;-63
2021/03/15 03:33:09;;;;;;;;;;;10.30;99.90;;;9.78;100.00;101253.09;5073120;28;19929;-63
2021/03/15 03:35:36;;;;;;;;;;;10.30;99.90;;;9.74;100.00;101252.84;5073539;28;19924;-63
2021/03/15 03:38:04;;;;;;;;;;;10.30;99.90;;;9.74;100.00;101249.31;5072347;28;19932;-63
2021/03/15 03:40:31;;;;;;;;;;;10.20;99.90;;;9.73;100.00;101245.81;5073209;28;19924;-63
2021/03/15 03:42:59;;;;;;;;;;;10.30;99.90;;;9.80;100.00;101240.13;5073155;28;19948;-63
2021/03/15 03:45:27;;;;;;;;;;;10.30;99.90;;;9.88;100.00;101243.06;5073510;28;19924;-63
2021/03/15 03:47:55;;;;;;;;;;;10.40;99.90;;;10.00;100.00;101239.25;5073200;28;19982;-63
2021/03/15 03:50:23;;;;;;;;;;;10.50;99.90;;;10.07;100.00;101229.75;5072988;28;19924;-64
2021/03/15 03:52:55;;;;;;;;;;;10.50;99.90;;;10.11;100.00;101228.13;5072609;28;19999;-63
2021/03/15 03:55:23;;;;;;;;;;;10.60;99.90;;;10.15;100.00;101231.13;5073056;28;19974;-63
2021/03/15 03:57:52;;;;;;;;;;;10.70;99.90;;;10.15;100.00;101221.09;5072921;28;20356;-63
2021/03/15 04:00:21;;;;;;;;;;;10.70;99.90;;;10.12;100.00;101218.16;5072420;28;19928;-63
2021/03/15 04:02:52;;;;;;;;;;;10.60;99.90;;;10.08;100.00;101212.47;5072278;28;20344;-63
2021/03/15 04:05:23;;;;;;;;;;;10.60;99.90;;;10.04;100.00;101210.59;5072798;28;19925;-63
2021/03/15 04:07:53;;;;;;;;;;;10.60;99.90;;;10.04;100.00;101218.69;5072595;28;19951;-63
2021/03/15 04:10:21;;;;;;;;;;;10.60;99.90;;;10.05;100.00;101218.44;5072519;28;19925;-63
2021/03/15 04:12:54;;;;;;;;;;;10.60;99.90;;;10.00;100.00;101217.66;5072189;28;19925;-63
2021/03/15 04:15:22;;;;;;;;;;;10.50;99.90;;;9.97;100.00;101215.50;5072475;28;20342;-63
2021/03/15 04:17:51;;;;;;;;;;;10.50;99.90;;;9.95;100.00;101217.66;5072295;28;19967;-63
2021/03/15 04:20:22;;;;;;;;;;;10.50;99.90;;;9.93;100.00;101214.44;5072252;28;19924;-63
2021/03/15 04:22:53;;;;;;;;;;;10.50;99.90;;;9.88;100.00;101215.25;5072190;28;19924;-63
2021/03/15 04:25:21;;;;;;;;;;;10.40;99.90;;;9.89;100.00;101216.88;5072916;28;19932;-64
2021/03/15 04:27:51;;;;;;;;;;;10.40;99.90;;;9.87;100.00;101219.84;5072479;28;19993;-63
2021/03/15 04:30:20;;;;;;;;;;;10.40;99.90;;;9.89;100.00;101208.75;5072045;28;20073;-63
2021/03/15 04:32:52;;;;;;;;;;;10.40;99.90;;;9.95;100.00;101217.66;5071908;28;20385;-63
2021/03/15 04:35:22;;;;;;;;;;;10.40;99.90;;;9.93;100.00;101209.84;5072603;28;19956;-63
2021/03/15 04:37:50;;;;;;;;;;;10.40;99.90;;;9.94;100.00;101208.72;5072440;28;20374;-63
2021/03/15 04:40:18;;;;;;;;;;;10.40;99.90;;;9.87;100.00;101209.06;5072346;28;19924;-63
2021/03/15 04:42:46;;;;;;;;;;;10.40;99.90;;;9.83;100.00;101212.56;5072169;28;19924;-63
2021/03/15 04:45:15;;;;;;;;;;;10.30;99.90;;;9.79;100.00;101208.78;5072313;28;19929;-63
2021/03/15 04:47:43;;;;;;;;;;;10.30;99.90;;;9.73;100.00;101221.50;5071854;28;19932;-63
2021/03/15 04:50:13;;;;;;;;;;;10.30;99.90;;;9.71;100.00;101220.16;5072243;28;19932;-63
2021/03/15 04:52:43;;;;;;;;;;;10.20;99.90;;;9.66;100.00;101223.69;5071793;28;19924;-64
2021/03/15 04:55:11;;;;;;;;;;;10.20;99.90;;;9.63;100.00;101216.16;5072299;28;20344;-63
2021/03/15 04:57:39;;;;;;;;;;;10.20;99.90;;;9.57;100.00;101219.13;5072003;28;19925;-63
2021/03/15 05:00:09;;;;;;;;;;;10.10;99.90;;;9.53;100.00;101216.16;5071946;28;20282;-63
2021/03/15 05:02:37;;;;;;;;;;;10.10;99.90;;;9.56;100.00;101221.00;5071846;28;19928;-63
2021/03/15 05:05:07;;;;;;;;;;;10.10;99.90;;;9.59;100.00;101220.47;5072396;28;19924;-62
2021/03/15 05:07:35;;;;;;;;;;;10.10;99.90;;;9.61;100.00;101222.88;5071882;28;19924;-63
2021/03/15 05:10:04;;;;;;;;;;;10.10;99.90;;;9.71;100.00;101229.06;5071979;28;19928;-62
2021/03/15 05:12:32;;;;;;;;;;;10.20;99.90;;;9.78;100.00;101232.31;5071700;28;19924;-63
2021/03/15 05:15:00;;;;;;;;;;;10.20;99.90;;;9.87;100.00;101240.66;5071946;28;20393;-62
2021/03/15 05:17:28;;;;;;;;;;;10.30;99.90;;;9.94;100.00;101234.97;5071702;28;19928;-62
2021/03/15 05:19:55;;;;;;;;;;;10.40;99.90;;;9.95;100.00;101239.25;5072053;28;19970;-63
2021/03/15 05:22:22;;;;;;;;;;;10.40;99.90;;;9.92;100.00;101234.41;5071356;28;19936;-63
2021/03/15 05:24:51;;;;;;;;;;;10.40;99.90;;;9.96;100.00;101243.59;5071894;28;19925;-63
2021/03/15 05:27:18;;;;;;;;;;;10.40;99.90;;;9.98;100.00;101239.53;5071526;28;19932;-63
2021/03/15 05:29:46;;;;;;;;;;;10.50;99.90;;;10.02;100.00;101240.59;5071813;28;19925;-63
2021/03/15 05:32:15;;;;;;;;;;;10.50;99.90;;;10.15;100.00;101248.13;5070967;28;19929;-63
2021/03/15 05:34:42;;;;;;;;;;;10.50;99.90;;;10.19;100.00;101246.50;5071624;28;20027;-63
2021/03/15 05:37:10;;;;;;;;;;;10.60;99.90;;;10.23;99.72;101244.06;5071522;28;20290;-63
2021/03/15 05:39:39;;;;;;;;;;;10.70;99.90;;;10.21;99.20;101243.53;5071592;28;19986;-63
2021/03/15 05:42:19;;;;;;;;;;;10.70;99.90;;;10.25;98.59;101245.41;5071146;28;20023;-63
2021/03/15 05:45:01;;;;;;;;;;;10.70;99.90;;;10.20;98.04;101253.53;5071700;28;19924;-64
2021/03/15 05:48:13;;;;;;;;;;;10.70;99.90;;;10.24;96.97;101242.97;5071408;28;20023;-63
2021/03/15 05:51:23;;;;;;;;;;;10.70;99.90;;;10.24;96.60;101242.97;5068958;28;19932;-63
2021/03/15 05:54:36;;;;;;;;;;;10.70;99.90;;;10.22;95.82;101245.13;5032702;28;19971;-65
2021/03/15 05:57:11;;;;;;;;;;;10.70;99.90;;;10.19;95.49;101242.97;5046763;28;19928;-62
2021/03/15 05:59:55;;;;;;;;;;;10.70;99.90;;;10.22;95.41;101254.06;5071460;28;19928;-63
2021/03/15 06:02:53;;;;;;;;;;;10.70;99.90;;;10.34;94.84;101259.13;5072882;28;19925;-63
2021/03/15 06:05:24;;;;;;;;;;;10.80;99.90;;;10.36;94.07;101249.69;5075280;28;20374;-63
2021/03/15 06:07:57;;;;;;;;;;;10.80;99.90;;;10.26;94.05;101252.44;5074934;28;20011;-63
2021/03/15 06:10:30;;;;;;;;;;;10.80;99.90;;;10.22;94.14;101258.66;5074714;28;19928;-63
2021/03/15 06:13:03;;;;;;;;;;;10.70;99.90;;;10.09;94.42;101260.00;5075135;28;20389;-63
2021/03/15 06:15:35;;;;;;;;;;;10.60;99.90;;;10.02;95.26;101259.50;5074969;28;20332;-62
2021/03/15 06:18:04;;;;;;;;;;;10.50;99.90;;;10.04;95.37;101259.22;5074687;28;20388;-65
2021/03/15 06:20:33;;;;;;;;;;;10.60;99.90;;;10.09;95.26;101251.91;5074520;28;19931;-63
2021/03/15 06:23:00;;;;;;;;;;;10.60;99.90;;;10.11;95.05;101249.75;5074465;28;19970;-63
2021/03/15 06:25:28;;;;;;;;;;;10.60;99.90;;;10.14;94.37;101259.22;5074725;28;19925;-63
2021/03/15 06:27:55;;;;;;;;;;;10.60;99.90;;;10.16;93.88;101254.34;5074257;28;19924;-63
2021/03/15 06:30:25;;;;;;;;;;;10.70;99.90;;;10.18;93.41;101250.28;5074494;28;19929;-63
2021/03/15 06:32:53;;;;;;;;;;;10.70;99.90;;;10.20;92.72;101261.66;5074184;28;19929;-63
2021/03/15 06:35:24;;;;;;;;;;;10.70;99.90;;;10.19;92.18;101257.31;5074206;28;20407;-63
2021/03/15 06:37:51;;;;;;;;;;;10.70;99.90;;;10.19;92.05;101259.19;5074232;28;19925;-63
2021/03/15 06:40:19;;;;;;;;;;;10.70;99.90;;;10.20;91.88;101258.94;5074294;28;19928;-63
2021/03/15 06:42:47;;;;;;;;;;;10.70;99.90;;;10.22;91.56;101261.34;5074116;28;19933;-63
2021/03/15 06:45:15;;;;;;;;;;;10.70;99.90;;;10.19;91.54;101268.13;5074344;28;19963;-63
2021/03/15 06:47:44;;;;;;;;;;;10.70;99.90;;;10.20;91.52;101260.81;5073881;28;19974;-63
2021/03/15 06:50:13;;;;;;;;;;;10.70;99.90;;;10.24;90.76;101260.00;5074373;28;20332;-63
2021/03/15 06:52:58;;;;;;;;;;;10.70;99.90;;;10.26;90.03;101259.72;5073820;28;19928;-63
2021/03/15 06:55:26;;;;;;;;;;;10.70;99.90;;;10.34;89.63;101259.94;5074968;28;19925;-64
2021/03/15 06:57:54;;;;;;;;;;;10.80;99.90;;;10.41;88.73;101265.06;5073788;28;19931;-64
2021/03/15 07:00:22;;;;;;;;;;;10.90;99.90;;;10.55;87.56;101260.66;5073596;28;20310;-63
2021/03/15 07:02:58;;;;;;;;;;;11.00;99.90;;;10.67;86.47;101254.94;5074026;28;19924;-63
2021/03/15 07:05:25;;;;;;;;;;;11.10;99.90;;;10.77;85.18;101258.38;5074068;28;19932;-63
2021/03/15 07:07:54;;;;;;;;;;;11.20;99.90;;;10.87;84.52;101252.91;5073723;28;19929;-63
2021/03/15 07:10:22;;;;;;;;;;;11.30;99.90;;;11.03;83.27;101253.59;5073516;28;19924;-63
2021/03/15 07:12:50;;;;;;;;;;;11.40;99.90;;;11.18;82.61;101252.69;5072772;28;19924;-64
2021/03/15 07:15:18;;;;;;;;;;;11.60;99.90;;;11.43;80.84;101252.44;5073768;28;19936;-63
2021/03/15 07:17:45;;;;;;;;;;;11.70;99.90;;;12.01;78.56;101250.53;5073389;28;19924;-63
2021/03/15 07:20:14;;;;;;;;;;;12.20;99.90;;;12.49;74.85;101249.38;5073204;28;19928;-63
2021/03/15 07:22:45;;;;;;;;;;;12.90;99.90;;;13.11;73.03;101245.50;5073172;28;20402;-63
2021/03/15 07:25:17;;;;;;;;;;;13.80;99.90;;;14.65;66.68;101245.84;5073381;28;19928;-63
2021/03/15 07:27:49;;;;;;;;;;;14.50;99.90;;;15.45;62.63;101237.63;5073323;28;20297;-63
2021/03/15 07:30:35;;;;;;;;;;;15.10;99.90;;;15.77;61.07;101229.19;5073252;28;19928;-64
2021/03/15 07:33:03;;;;;;;;;;;15.80;99.90;;;16.07;59.64;101235.69;5073298;28;19983;-64
2021/03/15 07:35:34;;;;;;;;;;;16.40;99.90;;;16.34;58.70;101235.44;5073313;28;19924;-63
2021/03/15 07:38:01;;;;;;;;;;;16.40;99.90;;;16.49;57.42;101233.38;5073233;28;19928;-63
2021/03/15 07:40:35;;;;;;;;;;;16.90;99.90;;;15.74;58.36;101242.63;5072949;28;19928;-63
2021/03/15 07:43:03;;;;;;;;;;;16.80;99.90;;;14.89;61.93;101243.66;5073181;28;20404;-63
2021/03/15 07:45:36;;;;;;;;;;;16.30;99.90;;;14.37;63.86;101245.09;5073171;28;19924;-63
2021/03/15 07:48:11;;;;;;;;;;;15.50;99.90;;;14.19;64.44;101248.72;5072633;28;20287;-63
2021/03/15 07:50:40;;;;;;;;;;;15.00;99.90;;;14.14;65.12;101248.78;5072317;28;19924;-63
2021/03/15 07:53:08;;;;;;;;;;;14.80;99.90;;;14.20;64.58;101253.84;5072942;28;20290;-65
2021/03/15 07:55:37;;;;;;;;;;;14.70;99.90;;;14.17;65.02;101259.88;5073340;28;20371;-65
2021/03/15 07:58:26;;;;;;;;;;;14.70;99.90;;;14.12;64.90;101257.28;5072754;28;20384;-65
2021/03/15 08:00:55;;;;;;;;;;;14.70;99.90;;;14.14;65.27;101256.94;5072543;28;19925;-65
2021/03/15 08:03:24;;;;;;;;;;;14.70;99.90;;;14.29;64.68;101253.16;5073528;28;20378;-63
2021/03/15 08:05:52;;;;;;;;;;;14.80;99.90;;;14.27;65.11;101258.88;5072866;28;20352;-63
2021/03/15 08:08:20;;;;;;;;;;;14.80;99.90;;;14.17;65.95;101261.78;5072616;28;19947;-63
2021/03/15 08:10:47;;;;;;;;;;;14.70;99.90;;;14.14;65.38;101260.50;5072545;28;20050;-63
2021/03/15 08:13:16;;;;;;;;;;;14.60;99.90;;;14.17;65.09;101265.31;5072741;28;20370;-63
2021/03/15 08:15:47;;;;;;;;;;;14.60;99.90;;;14.23;64.58;101266.81;5072921;28;19928;-63
2021/03/15 08:18:20;;;;;;;;;;;14.70;99.90;;;14.34;64.81;101272.91;5072683;28;19924;-63
2021/03/15 08:20:49;;;;;;;;;;;14.80;99.90;;;14.41;64.25;101267.06;5072750;28;19959;-63
2021/03/15 08:23:19;;;;;;;;;;;14.80;99.90;;;14.57;64.92;101277.31;5072618;28;19951;-63
2021/03/15 08:25:47;;;;;;;;;;;15.00;99.90;;;14.67;63.10;101281.72;5072478;28;20043;-63
2021/03/15 08:28:15;;;;;;;;;;;15.10;99.90;;;14.79;63.77;101282.00;5071921;28;19925;-63
2021/03/15 08:30:54;;;;;;;;;;;15.20;99.90;;;14.93;62.40;101280.03;5071985;28;19932;-63
2021/03/15 08:33:22;;;;;;;;;;;15.50;99.90;;;15.09;61.56;101285.94;5072360;28;20271;-63
2021/03/15 08:35:54;;;;;;;;;;;15.50;99.90;;;15.21;61.43;101286.19;5072390;28;19924;-63
2021/03/15 08:38:29;;;;;;;;;;;15.60;99.90;;;15.33;60.67;101289.16;5071903;28;20540;-63
2021/03/15 08:41:06;;;;;;;;;;;15.70;99.90;;;15.49;60.82;101295.06;5071688;28;19928;-63
2021/03/15 08:43:44;;;;;;;;;;;15.90;99.90;;;15.59;60.34;101300.28;5072389;28;19925;-63
2021/03/15 08:46:14;;;;;;;;;;;16.00;99.90;;;15.62;59.84;101305.13;5072302;28;19936;-63
2021/03/15 08:49:02;;;;;;;;;;;16.10;99.90;;;15.75;60.82;101298.75;5071853;28;19928;-63
2021/03/15 08:51:46;;;;;;;;;;;16.20;99.90;;;15.80;59.66;101307.63;5071562;28;20023;-63
2021/03/15 08:54:20;;;;;;;;;;;16.30;99.90;;;15.86;61.76;101311.03;5072144;28;19932;-63
2021/03/15 08:56:48;;;;;;;;;;;16.30;99.90;;;16.13;61.19;101302.66;5072004;28;19925;-63
2021/03/15 08:59:15;;;;;;;;;;;16.60;99.90;;;16.27;58.54;101306.06;5071918;28;19928;-63
2021/03/15 09:01:51;;;;;;;;;;;16.70;99.90;;;16.14;57.97;101303.44;5071661;28;19928;-63
2021/03/15 09:04:41;;;;;;;;;;;16.60;99.90;;;16.21;57.23;101310.06;5072446;28;19931;-63
2021/03/15 09:07:43;;;;;;;;;;;16.60;99.90;;;16.34;56.04;101297.41;5071873;28;19943;-63
2021/03/15 09:10:45;;;;;;;;;;;16.70;99.90;;;16.47;55.48;101312.06;5029982;28;19925;-63
2021/03/15 09:13:31;;;;;;;;;;;16.90;99.90;;;16.53;56.31;101313.53;5072115;28;19944;-63
2021/03/15 09:16:04;;;;;;;;;;;16.90;99.90;;;16.66;55.04;101305.22;5072419;28;19924;-64
2021/03/15 09:18:56;;;;;;;;;;;17.00;99.90;;;16.68;54.10;101303.00;5072077;28;20369;-63
2021/03/15 09:21:59;;;;;;;;;;;17.10;99.90;;;17.00;55.01;101299.00;5071295;28;19967;-63
2021/03/15 09:24:54;;;;;;;;;;;17.30;99.90;;;17.11;53.03;101304.97;5072482;28;19929;-62
2021/03/15 09:27:42;;;;;;;;;;;17.50;99.90;;;17.16;52.97;101302.06;5071603;28;19932;-63
2021/03/15 09:30:18;;;;;;;;;;;17.50;99.90;;;17.24;52.15;101309.44;5071861;28;19978;-63
2021/03/15 09:32:47;;;;;;;;;;;17.60;99.90;;;17.13;51.41;101316.38;5071423;28;19950;-63
2021/03/15 09:35:18;;;;;;;;;;;17.50;99.90;;;17.11;51.91;101307.69;5071686;28;20290;-63
2021/03/15 09:37:50;;;;;;;;;;;17.50;99.90;;;17.27;51.81;101306.06;5074192;28;19928;-63
2021/03/15 09:40:18;;;;;;;;;;;17.60;99.90;;;17.36;53.06;101306.84;5075532;28;19936;-63
2021/03/15 09:42:47;;;;;;;;;;;17.70;99.90;;;17.45;51.94;101308.47;5075211;28;20344;-63
2021/03/15 09:45:24;;;;;;;;;;;17.90;99.90;;;17.41;51.35;101307.53;5075573;28;19928;-64
2021/03/15 09:47:51;;;;;;;;;;;17.80;99.90;;;17.51;50.87;101309.09;5075053;28;19932;-65
2021/03/15 09:50:20;;;;;;;;;;;17.90;99.90;;;17.51;49.96;101308.31;5075421;28;19925;-64
2021/03/15 09:52:47;;;;;;;;;;;17.90;99.90;;;17.66;53.28;101313.31;5074885;28;19978;-64
2021/03/15 09:55:15;;;;;;;;;;;18.00;99.90;;;17.88;51.24;101311.13;5075385;28;19928;-64
2021/03/15 09:57:42;;;;;;;;;;;18.20;99.90;;;18.04;50.03;101305.94;5074882;28;19928;-64
2021/03/15 10:00:13;;;;;;;;;;;18.40;99.90;;;17.86;49.46;101307.13;5076769;28;19928;-64
2021/03/15 10:02:40;;;;;;;;;;;18.30;99.90;;;17.93;51.19;101313.69;5074818;28;19931;-64
2021/03/15 10:05:09;;;;;;;;;;;18.30;99.90;;;18.03;49.65;101305.13;5075139;28;19924;-64
2021/03/15 10:07:41;;;;;;;;;;;18.40;99.90;;;18.15;48.17;101298.19;5074806;28;19926;-64
2021/03/15 10:10:10;;;;;;;;;;;18.50;99.90;;;18.08;48.81;101306.09;5075176;28;19978;-65
2021/03/15 10:12:37;;;;;;;;;;;18.50;99.90;;;18.14;50.16;101310.25;5074528;28;19929;-65
2021/03/15 10:15:06;;;;;;;;;;;18.50;99.90;;;18.28;50.22;101310.81;5075342;28;19943;-65
2021/03/15 10:17:35;;;;;;;;;;;18.70;99.90;;;18.37;48.99;101311.56;5074858;28;20392;-64
2021/03/15 10:20:02;;;;;;;;;;;18.70;99.90;;;18.41;47.86;101304.31;5074525;28;19981;-64
2021/03/15 10:22:30;;;;;;;;;;;18.80;99.90;;;18.16;47.45;101317.00;5074193;28;19928;-64
2021/03/15 10:24:57;;;;;;;;;;;18.60;99.90;;;18.25;48.78;101315.03;5074730;28;19928;-64
2021/03/15 10:27:25;;;;;;;;;;;18.60;99.90;;;18.35;48.09;101298.22;5074370;28;19928;-64
2021/03/15 10:29:57;;;;;;;;;;;18.70;99.90;;;18.34;48.42;101313.03;5074748;28;19924;-64
2021/03/15 10:32:25;;;;;;;;;;;18.70;99.90;;;18.54;48.85;101300.56;5074115;28;19928;-64
2021/03/15 10:34:58;;;;;;;;;;;18.90;99.90;;;18.61;48.59;101311.00;5074831;28;19928;-64
2021/03/15 10:37:26;;;;;;;;;;;19.00;99.90;;;18.75;50.30;101306.09;5074328;28;20435;-63
2021/03/15 10:39:55;;;;;;;;;;;19.10;99.90;;;18.88;48.46;101305.00;5074974;28;20317;-63
2021/03/15 10:42:22;;;;;;;;;;;;;;;19.05;50.03;101307.63;5074393;28;20405;-62
2021/03/15 10:44:50;;;;;;;;;;;19.40;99.90;;;18.97;49.22;101303.81;5075102;28;20298;-64
2021/03/15 10:47:36;;;;;;;;;;;19.40;99.90;;;19.21;49.48;101311.34;5073892;28;19994;-63
2021/03/15 10:50:24;;;;;;;;;;;19.60;99.90;;;19.32;48.21;101314.50;5074524;28;19931;-63
2021/03/15 10:52:51;;;;;;;;;;;19.70;99.90;;;19.39;49.53;101306.53;5074119;28;19947;-63
2021/03/15 10:55:19;;;;;;;;;;;19.80;99.90;;;19.37;49.19;101298.63;5074355;28;19924;-63
2021/03/15 10:58:07;;;;;;;;;;;19.80;99.90;;;19.41;47.47;101305.09;5073981;28;19924;-62
2021/03/15 11:00:36;;;;;;;;;;;19.80;99.90;;;19.42;48.68;101303.16;5073765;28;19925;-65
2021/03/15 11:03:03;;;;;;;;;;;19.80;99.90;;;19.45;48.53;101308.78;5074042;28;19932;-63
2021/03/15 11:05:32;;;;;;;;;;;19.90;99.90;;;19.43;48.85;101302.78;5074362;28;19925;-63
2021/03/15 11:07:59;;;;;;;;;;;19.90;99.90;;;19.58;50.28;101307.66;5073734;28;19924;-63
2021/03/15 11:10:28;;;;;;;;;;;20.00;99.90;;;19.80;50.23;101297.41;5073544;28;19982;-63
2021/03/15 11:12:56;;;;;;;;;;;20.10;99.90;;;19.87;48.17;101294.91;5073629;28;19931;-63
2021/03/15 11:15:33;;;;;;;;;;;20.30;99.90;;;20.08;48.57;101285.47;5073952;28;20374;-63
2021/03/15 11:18:03;;;;;;;;;;;20.50;99.90;;;20.08;46.03;101284.66;5073599;28;19939;-62
2021/03/15 11:20:40;;;;;;;;;;;20.50;99.90;;;20.00;46.06;101282.81;5073404;28;19925;-63
2021/03/15 11:23:07;;;;;;;;;;;20.40;99.90;;;20.13;49.90;101284.41;5073466;28;19928;-62
2021/03/15 11:25:35;;;;;;;;;;;20.50;99.90;;;20.44;48.48;101283.88;5073880;28;19924;-63
2021/03/15 11:28:07;;;;;;;;;;;20.80;99.90;;;20.39;46.68;101279.44;5073304;28;19925;-64
2021/03/15 11:30:36;;;;;;;;;;;20.90;99.90;;;20.53;46.72;101277.13;5073149;28;19990;-65